Fenton, IL

4:03 AM CDT on September 19, 2019 (GMT -0500)
Erie | | Change Station
Active Advisory: Flood Warning

Elev 597 ft 41.69 °N, 90.10 °W | Updated 2 minutes ago

Partly Cloudy
Partly Cloudy
66 °F
Feels Like 66 °F
N
1
Wind Variable Wind from North
Gusts 2.0 mph

Today
High -- | Low -- °F
--% Chance of Precip.
Yesterday
High -- | Low -- °F
Precip. -- in
Pressure 30.02 in
Visibility 10.0 miles
Clouds Mostly Cloudy 5500 ft
Dew Point 62 °F
Humidity 86%
Rainfall 0.00 in
Snow Depth Not available.
6:44 AM 7:02 PM
Waning Gibbous, 77% visible
METAR KCWI 190856Z AUTO 16007KT 10SM BKN055 21/18 A3002 RMK AO2 SLP165 T02060183 58007
Pressure 30.02 in
Visibility 10.0 miles
Clouds Mostly Cloudy 5500 ft
Dew Point 62 °F
Humidity 86%
Rainfall 0.00 in
Snow Depth Not available.
6:44 AM 7:02 PM
Waning Gibbous, 77% visible
METAR KCWI 190856Z AUTO 16007KT 10SM BKN055 21/18 A3002 RMK AO2 SLP165 T02060183 58007

Get Your Daily Forecast Email!

Thanks for signing up!

Be on the lookout for a verification email in your inbox.

You'll start receiving severe weather alerts in your inbox..

×

10-Day Weather Forecast

Almanac

Astronomy

Sep. 19, 2019 Rise Set
Actual Time
Civil Twilight
Nautical Twilight
Astronomical Twilight
Moon
Length of Visible Light
Length of Day
Tomorrow will be .
, % of the Moon is Illuminated

Today's Extremes

State Highs State Lows

Community

WunderPhotos

Category 6

Welcome to Category 6. This is the collective home for Weather Underground's featured writeups by Dr. Jeff Masters (right), Bob Henson (left), Chris Burt, and other regular contributors.

Nearby

Air Quality

  Air Quality AQ Index Pollutant
Not available.

Snow Depth

Station Depth Elevation

Earthquake Activity

City Distance Mag. Time & Date
Minimum magnitude displayed is 2.5.

Coastal Water Temperatures

Place Temperature

Stations

Nearby Weather Stations

Station Location Temp. Windchill Dew Point Humidity Wind Precip. Elev Updated Type
                   

Watches & Warnings

Flood Warning
Issued: 8:02 PM CDT Sep. 18, 2019 – National Weather Service

... Flood Warning now in effect until Friday...

The Flood Warning continues for
the Rock River near Joslin.
* Until Friday.
* At 7:45 PM Wednesday the stage was 13.6 feet and falling.
* Flood stage is 12.0 feet.
* Minor flooding is occurring.
* Forecast: fall below flood stage Friday.


Lat... Lon 4152 9032 4169 9002 4163 8999 4148 9027